Página principal
METAR-TAF:

METAR-TAF

Aeroportos :

Aeroporto Internacional Nouakchott-Oumtounsy

Nouakchott, Mauritânia

latitude: 18-18-36N, longitude: 015-58-11W, altura: 3 m

Observação actual do tempo

O boletim foi feito há 20 minutos, às 06:30 UTC
Vento 13 kt de norte
Temperatura 16°C
Humidade 68%
Pressão 1012 hPa
Visibilidade 10 km ou mais
sem nuvens abaixo de 1500 metros e sem cumulonimbus

METAR: GQNO 150630Z 01013KT CAVOK 16/10 Q1012 NOSIG

Hora: 06:50 (06:50 UTC)

Previsão

O boletim foi feito há 1 hora e 50 minutos, às 05:00 UTC
Previsão válida de 15 às 06 UTC a 16 às 12 UTC
Vento 10 kt de nor-noroeste
Visibilidade: 8000 m
Temporariamente
de 15 às 09 UTC a 15 às 14 UTC
Vento 8 kt de nordeste
Tornando-se
de 16 às 08 UTC a 16 às 10 UTC
Vento 10 kt de nordeste

TAF: GQNO 150500Z 1506/1612 34010KT 8000 NSC TEMPO 1509/1514 04008KT BECMG 1608/1610 05010KT

Observações e previsões do tempo de mais de 4000 aeroportos (mensagens METAR e TAF).

As estações disponíveis são os pontos amarelos e vermelhos sobre o mapa.

Mova o rato sobre o mapa para ver o nome da estação.

Depois clique no ponto para visualizar as observações e previsões meteorológicas.

Para alterar o mapa : clique nos botões verdes com uma cruz preta para aumentar o zoom; no botão verde com uma pitada de zoom; ou nas setas verdes para mapas adjacentes.


METAR-TAF: